createdAt,value
2019-04-22T00:00:53.632Z,9.65
2019-04-22T00:02:00.492Z,9.60
2019-04-22T00:03:05.215Z,9.58
2019-04-22T00:04:10.868Z,9.41
2019-04-22T00:05:21.511Z,9.45
2019-04-22T00:06:42.915Z,9.48
2019-04-22T00:07:48.732Z,9.50
2019-04-22T00:08:55.886Z,9.47
2019-04-22T00:09:59.601Z,9.51
2019-04-22T00:11:07.945Z,9.51
2019-04-22T00:12:13.817Z,9.53
2019-04-22T00:13:21.894Z,9.51
2019-04-22T00:14:14.786Z,9.51
2019-04-22T00:15:19.981Z,9.50
2019-04-22T00:16:43.287Z,9.50
2019-04-22T00:18:54.891Z,9.46
2019-04-22T00:19:55.611Z,9.46
2019-04-22T00:20:52.712Z,9.44
2019-04-22T00:22:04.509Z,9.43
2019-04-22T00:23:03.699Z,9.36
2019-04-22T00:24:12.045Z,9.32
2019-04-22T00:25:22.596Z,9.32
2019-04-22T00:26:26.009Z,9.33
2019-04-22T00:27:29.536Z,9.31
2019-04-22T00:28:35.019Z,9.32
2019-04-22T00:29:49.364Z,9.28
2019-04-22T00:30:45.219Z,9.31
2019-04-22T00:31:53.091Z,9.30
2019-04-22T00:33:03.273Z,9.30
2019-04-22T00:34:09.354Z,9.18
2019-04-22T00:35:13.034Z,9.18
2019-04-22T00:36:23.737Z,9.16
2019-04-22T00:37:28.631Z,9.10
2019-04-22T00:38:39.498Z,9.10
2019-04-22T00:39:42.623Z,8.86
2019-04-22T00:40:49.101Z,8.77
2019-04-22T00:41:50.812Z,8.80
2019-04-22T00:42:55.277Z,8.87
2019-04-22T00:44:02.670Z,8.93
2019-04-22T00:45:06.365Z,8.93
2019-04-22T00:46:11.365Z,8.88
2019-04-22T00:47:23.230Z,8.90
2019-04-22T00:50:44.327Z,8.93
2019-04-22T00:51:44.720Z,8.86
2019-04-22T00:52:52.507Z,8.86
2019-04-22T00:53:51.231Z,8.81
2019-04-22T00:55:04.154Z,8.82
2019-04-22T00:56:07.391Z,8.84
2019-04-22T00:57:09.979Z,8.88
2019-04-22T00:58:19.172Z,8.90
2019-04-22T00:59:18.790Z,8.86
2019-04-22T01:01:31.093Z,8.92
2019-04-22T01:02:41.643Z,8.92
2019-04-22T01:05:09.870Z,8.95
2019-04-22T01:06:01.254Z,8.95
2019-04-22T01:06:57.573Z,8.94
2019-04-22T01:08:09.780Z,8.93
2019-04-22T01:09:10.882Z,8.93
2019-04-22T01:10:19.022Z,8.95
2019-04-22T01:11:29.653Z,8.94
2019-04-22T01:12:29.731Z,8.93
2019-04-22T01:13:34.344Z,8.89
2019-04-22T01:14:41.390Z,8.89
2019-04-22T01:16:09.357Z,8.88
2019-04-22T01:16:52.131Z,8.88
2019-04-22T01:18:00.278Z,8.88
2019-04-22T01:19:05.335Z,8.86
2019-04-22T01:20:45.763Z,8.83
2019-04-22T01:22:17.535Z,8.81
2019-04-22T01:23:24.605Z,8.81
2019-04-22T01:24:26.258Z,8.88
2019-04-22T01:25:31.266Z,8.87
2019-04-22T01:26:36.277Z,8.85
2019-04-22T01:27:39.242Z,8.68
2019-04-22T01:28:46.092Z,8.63
2019-04-22T01:29:48.964Z,8.57
2019-04-22T01:30:51.454Z,8.61
2019-04-22T01:31:51.005Z,8.62
2019-04-22T01:33:06.825Z,8.63
2019-04-22T01:34:16.159Z,8.63
2019-04-22T01:35:20.768Z,8.61
2019-04-22T01:36:30.286Z,8.59
2019-04-22T01:37:34.626Z,8.57
2019-04-22T01:38:56.321Z,8.57
2019-04-22T01:39:57.283Z,8.56
2019-04-22T01:41:04.490Z,8.57
2019-04-22T01:42:05.973Z,8.55
2019-04-22T01:45:29.523Z,8.43
2019-04-22T01:46:31.473Z,8.41
2019-04-22T01:48:39.397Z,8.43
2019-04-22T01:49:44.087Z,8.43
2019-04-22T01:50:49.683Z,8.41
2019-04-22T01:51:58.668Z,8.41
2019-04-22T01:55:21.639Z,8.39
2019-04-22T01:56:24.216Z,8.40
2019-04-22T01:57:20.852Z,8.40
2019-04-22T01:58:23.866Z,8.41
2019-04-22T01:59:30.178Z,8.39
2019-04-22T02:00:39.947Z,8.36
2019-04-22T02:02:48.745Z,8.32
2019-04-22T02:03:59.033Z,8.30
2019-04-22T02:05:02.902Z,8.26
2019-04-22T02:06:07.537Z,8.25
2019-04-22T02:07:09.657Z,8.24
2019-04-22T02:08:25.168Z,8.22
2019-04-22T02:09:31.741Z,8.21
2019-04-22T02:10:34.609Z,8.20
2019-04-22T02:11:39.085Z,8.16
2019-04-22T02:12:38.826Z,8.13
2019-04-22T02:13:42.823Z,8.13
2019-04-22T02:14:53.365Z,8.12
2019-04-22T02:17:02.340Z,8.08
2019-04-22T02:18:11.265Z,8.11
2019-04-22T02:19:18.488Z,8.09
2019-04-22T02:20:31.534Z,8.08
2019-04-22T02:21:20.438Z,8.08
2019-04-22T02:22:42.844Z,8.10
2019-04-22T02:24:41.215Z,8.05
2019-04-22T02:25:50.928Z,8.04
2019-04-22T02:27:00.322Z,8.04
2019-04-22T02:27:54.754Z,8.02
2019-04-22T02:28:53.660Z,8.01
2019-04-22T02:29:58.230Z,7.98
2019-04-22T02:32:28.090Z,7.99
2019-04-22T02:34:37.584Z,8.00
2019-04-22T02:35:58.209Z,7.98
2019-04-22T02:37:45.429Z,7.92
2019-04-22T02:40:03.845Z,7.94
2019-04-22T02:42:16.526Z,7.94
2019-04-22T02:43:30.781Z,7.90
2019-04-22T02:44:16.728Z,7.88
2019-04-22T02:45:26.470Z,7.86
2019-04-22T02:47:54.523Z,7.82
2019-04-22T02:49:45.474Z,7.78
2019-04-22T02:51:52.274Z,7.69
2019-04-22T02:53:13.879Z,7.62
2019-04-22T02:55:20.960Z,7.59
2019-04-22T02:58:47.798Z,7.53
2019-04-22T03:00:46.345Z,7.37
2019-04-22T03:05:11.321Z,7.43
2019-04-22T03:07:12.766Z,7.39
2019-04-22T03:08:24.004Z,7.41
2019-04-22T03:09:35.706Z,7.35
2019-04-22T03:10:47.236Z,7.34
2019-04-22T03:12:41.221Z,7.33
2019-04-22T03:13:55.190Z,7.31
2019-04-22T03:16:14.182Z,7.22
2019-04-22T03:17:08.654Z,7.21
2019-04-22T03:18:21.775Z,7.10
2019-04-22T03:20:14.232Z,6.89
2019-04-22T03:21:33.882Z,6.80
2019-04-22T03:22:34.614Z,6.81
2019-04-22T03:24:51.518Z,6.81
2019-04-22T03:27:52.528Z,6.82
2019-04-22T03:29:07.471Z,6.83
2019-04-22T03:31:54.888Z,6.78
2019-04-22T03:33:44.275Z,6.74
2019-04-22T03:35:52.986Z,6.72
2019-04-22T03:38:11.310Z,6.75
2019-04-22T03:40:13.997Z,6.63
2019-04-22T03:41:31.841Z,6.63
2019-04-22T03:42:35.615Z,6.66
2019-04-22T03:43:35.892Z,6.66
2019-04-22T03:46:55.342Z,6.40
2019-04-22T03:48:05.564Z,6.24
2019-04-22T03:49:12.105Z,6.20
2019-04-22T03:50:19.176Z,6.10
2019-04-22T03:51:19.532Z,5.99
2019-04-22T03:52:20.422Z,5.93
2019-04-22T03:53:29.141Z,5.83
2019-04-22T03:57:07.253Z,5.76
2019-04-22T03:58:49.579Z,5.58
2019-04-22T04:00:03.370Z,5.51
2019-04-22T04:00:55.452Z,5.38
2019-04-22T04:05:33.438Z,5.22
2019-04-22T04:06:35.566Z,5.32
2019-04-22T04:07:45.579Z,5.43
2019-04-22T04:08:33.303Z,5.37
2019-04-22T04:09:42.632Z,5.18
2019-04-22T04:13:03.567Z,4.92
2019-04-22T04:14:11.928Z,4.86
2019-04-22T04:15:17.331Z,4.82
2019-04-22T04:16:12.906Z,4.77
2019-04-22T04:17:26.635Z,4.73
2019-04-22T04:18:30.128Z,4.80
2019-04-22T04:19:47.987Z,4.80
2019-04-22T04:21:09.137Z,4.71
2019-04-22T04:21:41.880Z,4.69
2019-04-22T04:23:05.299Z,4.76
2019-04-22T04:25:16.802Z,4.93
2019-04-22T04:27:43.830Z,4.71
2019-04-22T04:29:36.062Z,4.70
2019-04-22T04:33:48.368Z,4.64
2019-04-22T04:36:01.501Z,4.86
2019-04-22T04:37:10.280Z,4.89
2019-04-22T04:37:58.763Z,4.87
2019-04-22T04:41:34.356Z,4.83
2019-04-22T04:43:37.819Z,4.76
2019-04-22T04:45:45.292Z,4.78
2019-04-22T04:46:59.364Z,4.86
2019-04-22T04:47:57.867Z,4.81
2019-04-22T04:50:07.071Z,4.85
2019-04-22T04:51:20.014Z,4.91
2019-04-22T04:52:27.621Z,4.96
2019-04-22T04:53:22.855Z,5.00
2019-04-22T04:54:30.289Z,5.00
2019-04-22T04:55:46.499Z,5.03
2019-04-22T04:59:05.553Z,5.18
2019-04-22T05:02:10.046Z,5.25
2019-04-22T05:04:25.520Z,5.28
2019-04-22T05:06:39.631Z,5.26
2019-04-22T05:07:48.527Z,5.37
2019-04-22T05:09:47.274Z,5.46
2019-04-22T05:11:01.081Z,5.48
2019-04-22T05:12:01.763Z,5.55
2019-04-22T05:13:10.776Z,5.68
2019-04-22T05:15:42.901Z,5.96
2019-04-22T05:17:27.933Z,5.87
2019-04-22T05:18:29.317Z,5.86
2019-04-22T05:21:43.531Z,6.25
2019-04-22T05:22:44.754Z,6.21
2019-04-22T05:24:00.976Z,6.20
2019-04-22T05:24:58.211Z,6.11
2019-04-22T05:26:12.620Z,6.02
2019-04-22T05:28:15.201Z,6.00
2019-04-22T05:29:26.640Z,6.00
2019-04-22T05:31:38.900Z,6.04
2019-04-22T05:33:48.207Z,6.21
2019-04-22T05:35:09.626Z,6.31
2019-04-22T05:35:54.788Z,6.38
2019-04-22T05:37:00.931Z,6.49
2019-04-22T05:38:13.353Z,6.64
2019-04-22T05:39:14.199Z,6.67
2019-04-22T05:40:25.961Z,6.66
2019-04-22T05:41:32.357Z,6.75
2019-04-22T05:42:29.462Z,6.81
2019-04-22T05:43:42.645Z,6.90
2019-04-22T05:45:56.325Z,7.00
2019-04-22T05:47:04.746Z,7.14
2019-04-22T05:48:10.950Z,7.14
2019-04-22T05:50:18.720Z,7.14
2019-04-22T05:51:25.937Z,7.22
2019-04-22T05:52:34.425Z,7.20
2019-04-22T05:53:32.476Z,7.23
2019-04-22T05:54:42.763Z,7.39
2019-04-22T05:55:48.898Z,7.45
2019-04-22T05:56:47.740Z,7.49
2019-04-22T05:57:59.661Z,7.55
2019-04-22T05:59:04.370Z,7.63
2019-04-22T06:00:19.296Z,7.70
2019-04-22T06:02:30.535Z,7.79
2019-04-22T06:03:35.205Z,7.87
2019-04-22T06:04:29.526Z,7.93
2019-04-22T06:05:35.733Z,7.94
2019-04-22T06:06:45.249Z,8.05
2019-04-22T06:07:57.415Z,8.16
2019-04-22T06:09:02.255Z,8.22
2019-04-22T06:10:04.263Z,8.29
2019-04-22T06:11:21.706Z,8.33
2019-04-22T06:12:09.855Z,8.38
2019-04-22T06:13:17.778Z,8.47
2019-04-22T06:14:24.756Z,8.42
2019-04-22T06:15:36.282Z,8.43
2019-04-22T06:16:44.036Z,8.47
2019-04-22T06:17:54.848Z,8.57
2019-04-22T06:19:00.900Z,8.68
2019-04-22T06:20:02.629Z,8.83
2019-04-22T06:21:11.156Z,8.92
2019-04-22T06:22:22.417Z,9.01
2019-04-22T06:25:51.372Z,9.28
2019-04-22T06:27:41.624Z,9.42
2019-04-22T06:28:51.515Z,9.39
2019-04-22T06:29:58.570Z,9.49
2019-04-22T06:31:06.896Z,9.68
2019-04-22T06:34:22.385Z,9.96
2019-04-22T06:36:37.521Z,10.08
2019-04-22T06:37:46.534Z,10.24
2019-04-22T06:38:39.281Z,10.33
2019-04-22T06:39:51.032Z,10.42
2019-04-22T06:41:07.345Z,10.66
2019-04-22T06:42:11.442Z,10.66
2019-04-22T06:43:19.943Z,10.87
2019-04-22T06:44:29.571Z,11.02
2019-04-22T06:45:27.458Z,11.17
2019-04-22T06:46:27.535Z,11.40
2019-04-22T06:47:47.336Z,11.40
2019-04-22T06:48:34.685Z,11.64
2019-04-22T06:49:41.683Z,11.69
2019-04-22T06:50:51.025Z,11.69
2019-04-22T06:51:55.555Z,12.14
2019-04-22T06:54:07.511Z,12.23
2019-04-22T06:55:16.757Z,12.29
2019-04-22T06:56:16.179Z,12.53
2019-04-22T06:57:25.777Z,12.75
2019-04-22T06:58:28.615Z,12.77
2019-04-22T06:59:31.213Z,12.82
2019-04-22T07:00:42.925Z,12.94
2019-04-22T07:01:55.032Z,13.05
2019-04-22T07:03:10.199Z,13.25
2019-04-22T07:05:03.690Z,13.57
2019-04-22T07:06:09.502Z,13.66
2019-04-22T07:07:12.700Z,14.24
2019-04-22T07:09:04.070Z,14.24
2019-04-22T07:09:34.987Z,14.47
2019-04-22T07:11:37.890Z,14.93
2019-04-22T07:13:01.552Z,14.90
2019-04-22T07:13:57.051Z,14.84
2019-04-22T07:14:53.489Z,14.83
2019-04-22T07:16:20.792Z,14.91
2019-04-22T07:17:07.083Z,15.01
2019-04-22T07:18:18.154Z,15.00
2019-04-22T07:19:20.636Z,15.06
2019-04-22T07:20:31.650Z,15.20
2019-04-22T07:21:32.189Z,15.49
2019-04-22T07:22:38.477Z,15.72
2019-04-22T07:25:56.733Z,16.22
2019-04-22T07:26:58.207Z,16.49
2019-04-22T07:28:08.305Z,16.62
2019-04-22T07:29:07.520Z,16.71
2019-04-22T07:30:22.031Z,16.64
2019-04-22T07:31:17.465Z,16.57
2019-04-22T07:32:48.352Z,16.56
2019-04-22T07:33:32.361Z,16.64
2019-04-22T07:36:54.693Z,17.22
2019-04-22T07:37:47.687Z,17.38
2019-04-22T07:39:01.729Z,17.63
2019-04-22T07:40:02.060Z,17.65
2019-04-22T07:41:10.534Z,17.67
2019-04-22T07:42:19.332Z,17.71
2019-04-22T07:43:30.581Z,17.70
2019-04-22T07:45:39.148Z,17.92
2019-04-22T07:46:43.091Z,18.15
2019-04-22T07:47:44.372Z,18.33
2019-04-22T07:48:51.858Z,18.46
2019-04-22T07:49:59.252Z,18.57
2019-04-22T07:51:03.946Z,18.98
2019-04-22T07:52:05.073Z,19.33
2019-04-22T07:53:11.773Z,19.65
2019-04-22T07:54:14.359Z,19.86
2019-04-22T07:55:25.878Z,19.97
2019-04-22T07:56:24.736Z,20.01
2019-04-22T07:58:37.656Z,20.29
2019-04-22T07:59:52.385Z,20.41
2019-04-22T08:00:47.631Z,20.41
2019-04-22T08:01:55.979Z,20.63
2019-04-22T08:03:06.522Z,20.68
2019-04-22T08:06:17.314Z,21.49
2019-04-22T08:07:26.040Z,21.67
2019-04-22T08:08:28.962Z,21.74
2019-04-22T08:09:37.433Z,22.14
2019-04-22T08:10:43.062Z,22.14
2019-04-22T08:11:49.975Z,22.22
2019-04-22T08:12:51.902Z,22.42
2019-04-22T08:13:54.843Z,22.45
2019-04-22T08:15:00.369Z,22.48
2019-04-22T08:16:16.357Z,22.71
2019-04-22T08:17:38.714Z,22.79
2019-04-22T08:18:17.770Z,23.26
2019-04-22T08:20:30.833Z,23.63
2019-04-22T08:21:38.229Z,23.73
2019-04-22T08:22:42.658Z,23.76
2019-04-22T08:23:50.863Z,24.02
2019-04-22T08:24:54.279Z,24.33
2019-04-22T08:25:59.151Z,24.64
2019-04-22T08:27:09.135Z,24.75
2019-04-22T08:28:13.377Z,24.87
2019-04-22T08:29:21.983Z,24.84
2019-04-22T08:30:29.040Z,24.97
2019-04-22T08:31:28.667Z,25.05
2019-04-22T08:32:38.056Z,25.03
2019-04-22T08:34:42.836Z,24.55
2019-04-22T08:36:09.044Z,24.90
2019-04-22T08:39:08.327Z,26.01
2019-04-22T08:40:12.476Z,26.60
2019-04-22T08:41:27.300Z,26.65
2019-04-22T08:42:36.539Z,26.47
2019-04-22T08:43:39.487Z,26.19
2019-04-22T08:45:05.828Z,26.22
2019-04-22T08:45:51.146Z,26.54
2019-04-22T08:46:50.699Z,26.66
2019-04-22T08:47:55.272Z,26.72
2019-04-22T08:49:00.817Z,26.73
2019-04-22T08:50:10.365Z,27.02
2019-04-22T08:51:15.503Z,27.25
2019-04-22T08:52:20.807Z,27.38
2019-04-22T08:53:28.620Z,27.04
2019-04-22T08:54:30.895Z,27.19
2019-04-22T08:55:41.783Z,27.50
2019-04-22T08:58:57.062Z,28.12
2019-04-22T09:01:05.106Z,28.09
2019-04-22T09:02:17.462Z,28.39
2019-04-22T09:03:14.050Z,28.26
2019-04-22T09:04:11.962Z,28.62
2019-04-22T09:05:42.064Z,28.91
2019-04-22T09:06:39.664Z,28.66
2019-04-22T09:07:38.160Z,28.90
2019-04-22T09:08:41.772Z,28.83
2019-04-22T09:09:47.253Z,28.61
2019-04-22T09:10:51.936Z,28.71
2019-04-22T09:14:14.072Z,29.47
2019-04-22T09:15:20.619Z,29.56
2019-04-22T09:16:27.986Z,29.20
2019-04-22T09:17:28.592Z,29.20
2019-04-22T09:18:35.118Z,29.22
2019-04-22T09:19:34.061Z,28.68
2019-04-22T09:20:54.871Z,28.96
2019-04-22T09:21:57.542Z,28.96
2019-04-22T09:22:56.799Z,28.57
2019-04-22T09:25:03.303Z,29.03
2019-04-22T09:26:09.476Z,29.13
2019-04-22T09:28:22.808Z,29.43
2019-04-22T09:29:32.514Z,29.60
2019-04-22T09:32:01.751Z,29.55
2019-04-22T09:32:44.766Z,29.38
2019-04-22T09:33:47.660Z,29.10
2019-04-22T09:34:51.962Z,29.19
2019-04-22T09:36:09.410Z,29.23
2019-04-22T09:37:11.701Z,29.45
2019-04-22T09:38:25.733Z,29.67
2019-04-22T09:39:28.295Z,29.77
2019-04-22T09:40:21.792Z,29.85
2019-04-22T09:41:31.533Z,29.54
2019-04-22T09:42:38.864Z,29.22
2019-04-22T09:44:47.807Z,29.09
2019-04-22T09:45:47.897Z,29.46
2019-04-22T09:46:54.673Z,29.79
2019-04-22T09:48:00.947Z,29.14
2019-04-22T09:49:12.262Z,29.24
2019-04-22T09:50:29.417Z,29.79
2019-04-22T09:51:11.581Z,30.11
2019-04-22T09:52:25.725Z,29.84
2019-04-22T09:53:34.019Z,29.71
2019-04-22T09:54:39.940Z,29.74
2019-04-22T09:55:37.376Z,29.88
2019-04-22T09:56:43.940Z,29.53
2019-04-22T09:57:52.474Z,29.33
2019-04-22T09:58:50.505Z,29.50
2019-04-22T10:00:04.338Z,29.65
2019-04-22T10:01:19.046Z,29.68
2019-04-22T10:02:31.786Z,30.02
2019-04-22T10:03:20.401Z,30.25
2019-04-22T10:04:29.118Z,30.60
2019-04-22T10:05:34.135Z,30.61
2019-04-22T10:06:45.748Z,30.40
2019-04-22T10:07:47.338Z,30.82
2019-04-22T10:09:02.090Z,31.05
2019-04-22T10:11:05.997Z,30.95
2019-04-22T10:12:02.678Z,30.92
2019-04-22T10:13:12.872Z,31.11
2019-04-22T10:14:18.746Z,31.22
2019-04-22T10:15:20.886Z,31.18
2019-04-22T10:17:31.624Z,31.84
2019-04-22T10:18:38.713Z,31.79
2019-04-22T10:19:43.910Z,32.24
2019-04-22T10:20:54.457Z,32.28
2019-04-22T10:22:16.667Z,32.41
2019-04-22T10:22:57.702Z,32.67
2019-04-22T10:25:10.754Z,33.34
2019-04-22T10:26:23.543Z,33.46
2019-04-22T10:27:20.838Z,33.51
2019-04-22T10:28:32.347Z,33.77
2019-04-22T10:29:39.238Z,34.54
2019-04-22T10:30:46.170Z,34.62
2019-04-22T10:31:43.624Z,34.68
2019-04-22T10:32:48.153Z,35.18
2019-04-22T10:33:48.215Z,34.81
2019-04-22T10:34:47.281Z,35.12
2019-04-22T10:35:45.728Z,34.96
2019-04-22T10:36:53.134Z,35.04
2019-04-22T10:37:56.363Z,34.78
2019-04-22T10:39:00.332Z,34.92
2019-04-22T10:40:09.134Z,34.96
2019-04-22T10:41:12.215Z,34.42
2019-04-22T10:42:17.407Z,34.84
2019-04-22T10:43:21.225Z,35.59
2019-04-22T10:44:24.840Z,35.69
2019-04-22T10:45:28.478Z,35.63
2019-04-22T10:46:32.158Z,35.57
2019-04-22T10:47:36.080Z,35.38
2019-04-22T10:48:40.135Z,35.15
2019-04-22T10:49:44.501Z,35.32
2019-04-22T10:50:48.923Z,34.57
2019-04-22T10:51:52.919Z,34.76
2019-04-22T10:52:57.429Z,35.23
2019-04-22T10:54:01.827Z,35.59
2019-04-22T10:55:09.584Z,35.62
2019-04-22T10:56:14.765Z,35.90
2019-04-22T10:57:20.036Z,35.77
2019-04-22T10:58:24.839Z,35.62
2019-04-22T10:59:28.950Z,35.55
2019-04-22T11:00:35.594Z,34.90
2019-04-22T11:01:40.444Z,34.98
2019-04-22T11:02:45.585Z,35.22
2019-04-22T11:03:51.007Z,35.53
2019-04-22T11:04:54.840Z,35.74
2019-04-22T11:05:59.320Z,35.49
2019-04-22T11:07:06.908Z,35.74
2019-04-22T11:08:10.236Z,36.01
2019-04-22T11:09:14.278Z,35.73
2019-04-22T11:10:35.493Z,36.05
2019-04-22T11:11:34.812Z,35.69
2019-04-22T11:12:32.269Z,35.29
2019-04-22T11:13:35.841Z,35.56
2019-04-22T11:14:42.755Z,35.73
2019-04-22T11:15:45.046Z,35.91
2019-04-22T11:16:49.752Z,35.70
2019-04-22T11:17:53.796Z,35.36
2019-04-22T11:18:57.426Z,35.33
2019-04-22T11:20:01.906Z,35.14
2019-04-22T11:21:05.724Z,35.29
2019-04-22T11:22:16.892Z,34.98
2019-04-22T11:23:14.734Z,35.34
2019-04-22T11:24:18.851Z,34.75
2019-04-22T11:25:23.616Z,34.75
2019-04-22T11:26:28.281Z,34.48
2019-04-22T11:27:32.907Z,34.32
2019-04-22T11:28:38.037Z,34.37
2019-04-22T11:29:41.856Z,34.67
2019-04-22T11:30:45.580Z,34.60
2019-04-22T11:31:50.505Z,34.78
2019-04-22T11:32:54.432Z,35.09
2019-04-22T11:33:58.559Z,34.79
2019-04-22T11:35:03.631Z,35.17
2019-04-22T11:36:08.060Z,34.91
2019-04-22T11:37:12.274Z,35.23
2019-04-22T11:38:17.261Z,35.52
2019-04-22T11:39:21.800Z,35.44
2019-04-22T11:40:34.789Z,35.22
2019-04-22T11:41:31.242Z,34.96
2019-04-22T11:42:36.345Z,34.65
2019-04-22T11:43:41.171Z,34.74
2019-04-22T11:44:45.414Z,34.15
2019-04-22T11:45:49.469Z,34.19
2019-04-22T11:46:53.664Z,34.60
2019-04-22T11:47:57.382Z,34.82
2019-04-22T11:49:01.012Z,34.85
2019-04-22T11:50:08.076Z,34.89
2019-04-22T11:51:11.735Z,34.84
2019-04-22T11:52:17.276Z,34.93
2019-04-22T11:53:20.768Z,35.01
2019-04-22T11:54:25.118Z,34.65
2019-04-22T11:55:28.953Z,34.28
2019-04-22T11:56:32.665Z,33.89
2019-04-22T11:57:37.175Z,34.07
2019-04-22T11:58:40.877Z,33.59
2019-04-22T11:59:46.831Z,33.01
2019-04-22T12:00:51.944Z,33.00
2019-04-22T12:01:57.050Z,33.00
2019-04-22T12:03:00.938Z,33.24
2019-04-22T12:04:04.653Z,33.39
2019-04-22T12:05:11.985Z,33.25
2019-04-22T12:06:15.863Z,33.23
2019-04-22T12:07:21.207Z,32.57
2019-04-22T12:08:25.226Z,32.29
2019-04-22T12:09:29.910Z,32.13
2019-04-22T12:10:42.422Z,32.05
2019-04-22T12:11:40.483Z,32.09
2019-04-22T12:12:46.591Z,32.25
2019-04-22T12:13:49.890Z,32.33
2019-04-22T12:14:54.434Z,32.33
2019-04-22T12:15:59.038Z,32.13
2019-04-22T12:17:03.572Z,31.59
2019-04-22T12:18:09.216Z,31.61
2019-04-22T12:19:13.329Z,31.45
2019-04-22T12:20:20.187Z,30.77
2019-04-22T12:21:24.027Z,30.58
2019-04-22T12:22:29.136Z,30.57
2019-04-22T12:23:32.949Z,30.13
2019-04-22T12:24:38.375Z,30.04
2019-04-22T12:25:51.626Z,30.14
2019-04-22T12:26:48.387Z,29.83
2019-04-22T12:27:52.955Z,29.77
2019-04-22T12:28:57.271Z,29.59
2019-04-22T12:30:02.994Z,29.65
2019-04-22T12:31:06.688Z,29.98
2019-04-22T12:32:11.537Z,30.24
2019-04-22T12:33:15.730Z,30.45
2019-04-22T12:34:21.553Z,30.54
2019-04-22T12:35:26.292Z,30.58
2019-04-22T12:36:30.717Z,30.55
2019-04-22T12:37:43.573Z,30.56
2019-04-22T12:38:40.018Z,30.47
2019-04-22T12:39:45.298Z,30.33
2019-04-22T12:40:56.583Z,30.02
2019-04-22T12:41:56.105Z,29.86
2019-04-22T12:43:04.161Z,29.91
2019-04-22T12:44:07.470Z,29.68
2019-04-22T12:45:12.270Z,29.48
2019-04-22T12:46:16.351Z,29.63
2019-04-22T12:47:20.265Z,29.47
2019-04-22T12:48:25.263Z,29.51
2019-04-22T12:49:29.982Z,29.56
2019-04-22T12:50:37.241Z,29.54
2019-04-22T12:51:39.058Z,29.61
2019-04-22T12:52:50.516Z,29.70
2019-04-22T12:53:48.874Z,29.66
2019-04-22T12:54:52.991Z,29.30
2019-04-22T12:55:57.382Z,29.33
2019-04-22T12:57:01.846Z,29.41
2019-04-22T12:58:05.557Z,29.36
2019-04-22T12:59:09.757Z,29.33
2019-04-22T13:00:15.635Z,29.46
2019-04-22T13:01:19.509Z,29.56
2019-04-22T13:02:23.190Z,29.84
2019-04-22T13:03:26.848Z,29.68
2019-04-22T13:04:32.158Z,29.85
2019-04-22T13:05:37.463Z,30.11
2019-04-22T13:06:41.971Z,30.12
2019-04-22T13:07:45.777Z,30.24
2019-04-22T13:08:49.847Z,30.41
2019-04-22T13:09:55.138Z,30.59
2019-04-22T13:11:05.774Z,30.10
2019-04-22T13:12:04.406Z,29.84
2019-04-22T13:13:09.202Z,29.14
2019-04-22T13:14:12.980Z,28.65
2019-04-22T13:15:19.984Z,28.94
2019-04-22T13:16:25.007Z,28.99
2019-04-22T13:17:29.166Z,29.05
2019-04-22T13:18:39.971Z,28.81
2019-04-22T13:19:38.380Z,28.55
2019-04-22T13:20:42.342Z,28.68
2019-04-22T13:21:46.806Z,28.47
2019-04-22T13:22:50.676Z,28.49
2019-04-22T13:23:54.886Z,28.57
2019-04-22T13:24:59.703Z,28.44
2019-04-22T13:26:03.487Z,28.36
2019-04-22T13:27:08.595Z,28.43
2019-04-22T13:28:13.279Z,28.24
2019-04-22T13:29:17.167Z,28.29
2019-04-22T13:30:22.886Z,28.39
2019-04-22T13:31:26.959Z,28.13
2019-04-22T13:32:31.421Z,28.47
2019-04-22T13:33:35.090Z,28.89
2019-04-22T13:34:45.833Z,29.09
2019-04-22T13:35:45.804Z,29.52
2019-04-22T13:36:50.344Z,29.59
2019-04-22T13:37:54.950Z,29.75
2019-04-22T13:38:58.914Z,29.94
2019-04-22T13:40:03.537Z,30.06
2019-04-22T13:41:21.473Z,30.06
2019-04-22T13:42:18.002Z,29.73
2019-04-22T13:43:18.910Z,29.08
2019-04-22T13:44:23.037Z,29.04
2019-04-22T13:45:27.638Z,29.21
2019-04-22T13:46:33.646Z,29.24
2019-04-22T13:47:59.646Z,29.03
2019-04-22T13:49:08.735Z,28.55
2019-04-22T13:50:31.344Z,28.34
2019-04-22T13:51:48.759Z,28.40
2019-04-22T13:53:46.287Z,28.46
2019-04-22T13:56:45.115Z,28.91
2019-04-22T13:57:41.399Z,29.14
2019-04-22T13:58:44.907Z,29.31
2019-04-22T13:59:44.047Z,29.24
2019-04-22T14:00:42.847Z,29.24
2019-04-22T14:01:48.471Z,29.12
2019-04-22T14:02:58.157Z,29.04
2019-04-22T14:04:07.127Z,28.84
2019-04-22T14:05:12.913Z,28.76
2019-04-22T14:06:16.732Z,28.94
2019-04-22T14:07:20.913Z,29.08
2019-04-22T14:08:24.965Z,29.31
2019-04-22T14:09:28.735Z,29.43
2019-04-22T14:10:32.367Z,29.40
2019-04-22T14:11:46.147Z,29.41
2019-04-22T14:12:42.539Z,29.42
2019-04-22T14:13:47.917Z,29.35
2019-04-22T14:14:52.574Z,29.35
2019-04-22T14:15:57.034Z,29.16
2019-04-22T14:17:01.138Z,28.72
2019-04-22T14:18:07.268Z,28.40
2019-04-22T14:19:11.913Z,28.23
2019-04-22T14:20:16.334Z,28.27
2019-04-22T14:21:21.041Z,28.42
2019-04-22T14:22:26.261Z,28.65
2019-04-22T14:23:30.868Z,28.67
2019-04-22T14:24:34.765Z,28.55
2019-04-22T14:25:38.780Z,28.22
2019-04-22T14:26:54.954Z,28.05
2019-04-22T14:27:56.545Z,28.27
2019-04-22T14:28:53.538Z,28.23
2019-04-22T14:29:57.711Z,27.87
2019-04-22T14:31:02.375Z,27.31
2019-04-22T14:32:15.041Z,27.34
2019-04-22T14:33:12.114Z,27.29
2019-04-22T14:34:16.953Z,26.91
2019-04-22T14:35:22.998Z,26.56
2019-04-22T14:36:27.573Z,26.43
2019-04-22T14:37:32.156Z,26.50
2019-04-22T14:38:36.763Z,26.69
2019-04-22T14:39:41.870Z,26.89
2019-04-22T14:40:45.602Z,26.95
2019-04-22T14:43:13.217Z,27.31
2019-04-22T14:44:24.249Z,27.20
2019-04-22T14:45:05.166Z,27.25
2019-04-22T14:45:41.831Z,26.96
2019-04-22T14:46:45.577Z,26.60
2019-04-22T14:47:42.151Z,26.33
2019-04-22T14:48:57.316Z,26.44
2019-04-22T14:49:53.908Z,26.49
2019-04-22T14:50:51.736Z,26.13
2019-04-22T14:52:03.555Z,26.00
2019-04-22T14:53:03.957Z,26.05
2019-04-22T14:54:06.667Z,25.93
2019-04-22T14:55:06.098Z,25.74
2019-04-22T14:56:02.313Z,25.67
2019-04-22T14:57:07.353Z,25.33
2019-04-22T14:58:11.216Z,25.15
2019-04-22T14:59:14.818Z,24.98
2019-04-22T15:00:19.821Z,24.89
2019-04-22T15:01:24.645Z,24.91
2019-04-22T15:02:29.536Z,24.80
2019-04-22T15:03:33.511Z,24.72
2019-04-22T15:04:37.550Z,24.59
2019-04-22T15:05:41.985Z,24.63
2019-04-22T15:06:48.276Z,24.54
2019-04-22T15:07:51.109Z,24.42
2019-04-22T15:08:58.018Z,24.32
2019-04-22T15:10:00.127Z,24.30
2019-04-22T15:11:05.920Z,23.94
2019-04-22T15:12:23.341Z,24.03
2019-04-22T15:13:17.810Z,24.00
2019-04-22T15:14:21.683Z,23.98
2019-04-22T15:15:45.224Z,23.85
2019-04-22T15:16:53.016Z,23.75
2019-04-22T15:18:01.122Z,23.76
2019-04-22T15:19:07.649Z,23.70
2019-04-22T15:20:19.657Z,23.67
2019-04-22T15:21:25.146Z,23.54
2019-04-22T15:22:30.850Z,23.42
2019-04-22T15:23:34.853Z,23.50
2019-04-22T15:24:38.842Z,23.52
2019-04-22T15:25:43.908Z,23.54
2019-04-22T15:26:48.444Z,23.44
2019-04-22T15:27:53.368Z,23.47
2019-04-22T15:28:57.730Z,23.33
2019-04-22T15:30:01.484Z,23.18
2019-04-22T15:31:05.707Z,23.17
2019-04-22T15:32:09.533Z,23.19
2019-04-22T15:33:13.162Z,23.11
2019-04-22T15:34:18.530Z,23.14
2019-04-22T15:35:23.184Z,23.10
2019-04-22T15:36:27.975Z,23.08
2019-04-22T15:37:33.207Z,22.91
2019-04-22T15:38:38.096Z,22.89
2019-04-22T15:39:42.021Z,22.91
2019-04-22T15:40:46.925Z,22.93
2019-04-22T15:42:01.488Z,22.87
2019-04-22T15:42:56.947Z,22.87
2019-04-22T15:44:01.863Z,22.87
2019-04-22T15:45:08.535Z,22.79
2019-04-22T15:46:13.962Z,22.79
2019-04-22T15:47:18.844Z,22.66
2019-04-22T15:48:23.232Z,22.49
2019-04-22T15:49:27.864Z,22.38
2019-04-22T15:50:32.798Z,22.10
2019-04-22T15:51:36.511Z,21.99
2019-04-22T15:52:46.083Z,21.94
2019-04-22T15:53:45.871Z,21.94
2019-04-22T15:54:51.813Z,21.89
2019-04-22T15:55:54.876Z,21.85
2019-04-22T15:56:59.019Z,21.82
2019-04-22T15:58:03.887Z,21.83
2019-04-22T15:59:27.341Z,21.83
2019-04-22T16:00:25.454Z,21.83
2019-04-22T16:01:26.007Z,21.72
2019-04-22T16:02:25.582Z,21.70
2019-04-22T16:03:29.354Z,21.66
2019-04-22T16:04:33.025Z,21.72
2019-04-22T16:05:36.657Z,21.56
2019-04-22T16:06:41.136Z,21.51
2019-04-22T16:07:45.817Z,21.51
2019-04-22T16:08:49.857Z,21.37
2019-04-22T16:09:54.030Z,21.41
2019-04-22T16:10:57.861Z,21.43
2019-04-22T16:12:13.710Z,21.27
2019-04-22T16:13:13.157Z,21.15
2019-04-22T16:14:15.112Z,21.11
2019-04-22T16:15:18.414Z,21.08
2019-04-22T16:16:22.917Z,20.99
2019-04-22T16:17:26.796Z,21.03
2019-04-22T16:18:30.745Z,21.04